Time,TemperatureF,DewpointF,PressureIn,WindDirection,WindDirectionDegrees,WindSpeedMPH,WindSpeedGustMPH,Humidity,HourlyPrecipIn,Conditions,Clouds,dailyrainin,SoftwareType,DateUTC
2013-04-20 00:02:00,44.2,14.7,30.03,ENE,60,3.0,6.7,30,0.00,,,-99.99,FreeWX 2.04,2013-04-20 04:02:00,
2013-04-20 00:12:00,43.9,14.5,30.03,East,89,3.0,6.3,30,0.00,,,-99.99,FreeWX 2.04,2013-04-20 04:12:00,
2013-04-20 00:22:00,43.7,13.6,30.03,ESE,120,3.0,7.4,29,0.00,,,-99.99,FreeWX 2.04,2013-04-20 04:22:00,
2013-04-20 00:32:00,43.3,13.3,30.03,East,86,3.0,8.3,29,0.00,,,-99.99,FreeWX 2.04,2013-04-20 04:32:00,
2013-04-20 00:42:00,42.8,13.5,30.03,NNE,24,3.0,6.7,30,0.00,,,-99.99,FreeWX 2.04,2013-04-20 04:42:00,
2013-04-20 00:52:00,42.4,14.0,30.03,NNE,19,2.0,4.5,31,0.00,,,-99.99,FreeWX 2.04,2013-04-20 04:52:00,
2013-04-20 01:02:00,42.3,14.5,30.03,NE,50,1.0,5.4,32,0.00,,,-99.99,FreeWX 2.04,2013-04-20 05:02:00,
2013-04-20 01:12:00,41.7,14.0,30.03,SE,137,1.0,4.9,32,0.00,,,-99.99,FreeWX 2.04,2013-04-20 05:12:00,
2013-04-20 01:22:00,41.5,14.5,30.06,SSE,151,1.0,5.8,33,0.00,,,-99.99,FreeWX 2.04,2013-04-20 05:22:00,
2013-04-20 01:32:00,41.2,14.9,30.06,South,188,2.0,4.0,34,0.00,,,-99.99,FreeWX 2.04,2013-04-20 05:32:00,
2013-04-20 01:42:00,41.4,15.1,30.06,North,-999,0.0,3.1,34,0.00,,,-99.99,FreeWX 2.04,2013-04-20 05:42:00,
2013-04-20 01:52:00,41.7,16.7,30.06,North,0,1.0,4.5,36,0.00,,,-99.99,FreeWX 2.04,2013-04-20 05:52:00,
2013-04-20 02:02:00,41.7,16.2,30.06,North,-999,0.0,3.1,35,0.00,,,-99.99,FreeWX 2.04,2013-04-20 06:02:00,
2013-04-20 02:12:00,42.1,16.3,30.06,North,357,1.0,4.9,35,0.00,,,-99.99,FreeWX 2.04,2013-04-20 06:12:00,
2013-04-20 02:22:00,42.1,16.3,30.06,North,359,1.0,4.9,35,0.00,,,-99.99,FreeWX 2.04,2013-04-20 06:22:00,
2013-04-20 02:32:00,42.1,15.1,30.03,NNE,21,2.0,5.4,33,0.00,,,-99.99,FreeWX 2.04,2013-04-20 06:32:00,
2013-04-20 02:42:00,41.7,16.2,30.03,NE,36,1.0,4.9,35,0.00,,,-99.99,FreeWX 2.04,2013-04-20 06:42:00,
2013-04-20 02:52:00,41.4,16.5,30.03,ENE,78,1.0,4.5,36,0.00,,,-99.99,FreeWX 2.04,2013-04-20 06:52:00,
2013-04-20 03:02:00,41.5,16.5,30.06,North,357,1.0,4.9,36,0.00,,,-99.99,FreeWX 2.04,2013-04-20 07:02:00,
2013-04-20 03:12:00,41.5,17.8,30.06,NNE,12,2.0,5.4,38,0.00,,,-99.99,FreeWX 2.04,2013-04-20 07:12:00,
2013-04-20 03:22:00,41.7,18.0,30.03,NNW,345,2.0,4.5,38,0.00,,,-99.99,FreeWX 2.04,2013-04-20 07:22:00,
2013-04-20 03:32:00,41.7,17.4,30.06,NNE,32,3.0,6.9,37,0.00,,,-99.99,FreeWX 2.04,2013-04-20 07:32:00,
2013-04-20 03:42:00,41.7,18.0,30.06,NNW,338,2.0,5.4,38,0.00,,,-99.99,FreeWX 2.04,2013-04-20 07:42:00,
2013-04-20 03:52:00,41.4,17.6,30.06,East,98,1.0,4.5,38,0.00,,,-99.99,FreeWX 2.04,2013-04-20 07:52:00,
2013-04-20 04:02:00,41.0,17.4,30.06,ENE,63,2.0,5.8,38,0.00,,,-99.99,FreeWX 2.04,2013-04-20 08:02:00,
2013-04-20 04:12:00,40.6,17.1,30.06,NE,43,2.0,9.2,38,0.00,,,-99.99,FreeWX 2.04,2013-04-20 08:12:00,
2013-04-20 04:22:00,40.5,16.9,30.06,NNE,14,1.0,4.5,38,0.00,,,-99.99,FreeWX 2.04,2013-04-20 08:22:00,
2013-04-20 04:32:00,40.5,17.4,30.06,North,9,3.0,8.3,39,0.00,,,-99.99,FreeWX 2.04,2013-04-20 08:32:00,
2013-04-20 04:42:00,40.5,16.9,30.06,NNE,31,2.0,5.4,38,0.00,,,-99.99,FreeWX 2.04,2013-04-20 08:42:00,
2013-04-20 04:52:00,40.5,16.9,30.06,NNE,18,3.0,6.9,38,0.00,,,-99.99,FreeWX 2.04,2013-04-20 08:52:00,
2013-04-20 05:02:00,40.1,16.5,30.06,ESE,107,2.0,5.4,38,0.00,,,-99.99,FreeWX 2.04,2013-04-20 09:02:00,
2013-04-20 05:12:00,39.7,16.9,30.06,North,4,2.0,4.9,39,0.00,,,-99.99,FreeWX 2.04,2013-04-20 09:12:00,
2013-04-20 05:23:00,39.7,16.9,30.06,NNE,25,3.0,7.4,39,0.00,,,-99.99,FreeWX 2.04,2013-04-20 09:23:00,
2013-04-20 05:33:00,39.6,16.7,30.06,NE,43,1.0,6.3,39,0.00,,,-99.99,FreeWX 2.04,2013-04-20 09:33:00,
2013-04-20 05:43:00,39.4,17.1,30.06,North,359,2.0,6.7,40,0.00,,,-99.99,FreeWX 2.04,2013-04-20 09:43:00,
2013-04-20 05:53:00,39.2,16.9,30.06,NNE,15,1.0,6.3,40,0.00,,,-99.99,FreeWX 2.04,2013-04-20 09:53:00,
2013-04-20 06:03:00,39.0,16.7,30.09,NNE,14,1.0,5.4,40,0.00,,,-99.99,FreeWX 2.04,2013-04-20 10:03:00,
2013-04-20 06:13:00,38.8,16.5,30.09,North,352,1.0,4.9,40,0.00,,,-99.99,FreeWX 2.04,2013-04-20 10:13:00,
2013-04-20 06:23:00,38.7,16.5,30.09,NNE,19,1.0,5.4,40,0.00,,,-99.99,FreeWX 2.04,2013-04-20 10:23:00,
2013-04-20 06:33:00,38.7,17.1,30.09,NW,319,1.0,4.9,41,0.00,,,-99.99,FreeWX 2.04,2013-04-20 10:33:00,
2013-04-20 06:43:00,38.5,16.9,30.09,NNE,31,1.0,6.3,41,0.00,,,-99.99,FreeWX 2.04,2013-04-20 10:43:00,
2013-04-20 06:53:00,38.1,16.5,30.09,North,-999,0.0,4.9,41,0.00,,,-99.99,FreeWX 2.04,2013-04-20 10:53:00,
2013-04-20 07:03:00,37.9,16.3,30.09,NE,54,1.0,4.5,41,0.00,,,-99.99,FreeWX 2.04,2013-04-20 11:03:00,
2013-04-20 07:13:00,37.9,16.9,30.09,East,83,1.0,4.5,42,0.00,,,-99.99,FreeWX 2.04,2013-04-20 11:13:00,
2013-04-20 07:23:00,38.3,17.8,30.09,North,8,1.0,4.5,43,0.00,,,-99.99,FreeWX 2.04,2013-04-20 11:23:00,
2013-04-20 07:33:00,38.7,18.1,30.12,North,11,1.0,4.9,43,0.00,,,-99.99,FreeWX 2.04,2013-04-20 11:33:00,
2013-04-20 07:43:00,39.4,18.1,30.12,NNE,14,2.0,4.9,42,0.00,,,-99.99,FreeWX 2.04,2013-04-20 11:43:00,
2013-04-20 07:53:00,39.9,18.7,30.12,NNE,19,3.0,5.8,42,0.00,,,-99.99,FreeWX 2.04,2013-04-20 11:53:00,
2013-04-20 08:03:00,40.6,18.9,30.12,North,9,1.0,4.5,41,0.00,,,-99.99,FreeWX 2.04,2013-04-20 12:03:00,
2013-04-20 08:13:00,41.4,18.3,30.12,North,10,4.0,6.7,39,0.00,,,-99.99,FreeWX 2.04,2013-04-20 12:13:00,
2013-04-20 08:23:00,42.3,19.0,30.12,North,10,3.0,5.8,39,0.00,,,-99.99,FreeWX 2.04,2013-04-20 12:23:00,
2013-04-20 08:33:00,43.0,19.2,30.15,NNE,12,3.0,6.7,38,0.00,,,-99.99,FreeWX 2.04,2013-04-20 12:33:00,
2013-04-20 08:43:00,43.9,17.4,30.15,NNE,12,4.0,7.4,34,0.00,,,-99.99,FreeWX 2.04,2013-04-20 12:43:00,
2013-04-20 08:53:00,44.4,15.6,30.15,NNE,28,5.0,8.3,31,0.00,,,-99.99,FreeWX 2.04,2013-04-20 12:53:00,
2013-04-20 09:03:00,45.5,15.8,30.15,NNE,22,4.0,6.9,30,0.00,,,-99.99,FreeWX 2.04,2013-04-20 13:03:00,
2013-04-20 09:13:00,46.2,15.8,30.15,ENE,60,4.0,7.4,29,0.00,,,-99.99,FreeWX 2.04,2013-04-20 13:13:00,
2013-04-20 09:23:00,46.9,15.6,30.15,NE,44,4.0,10.1,28,0.00,,,-99.99,FreeWX 2.04,2013-04-20 13:23:00,
2013-04-20 09:33:00,48.2,15.8,30.15,North,6,4.0,8.3,27,0.00,,,-99.99,FreeWX 2.04,2013-04-20 13:33:00,
2013-04-20 09:43:00,48.4,13.3,30.15,NE,51,4.0,10.5,24,0.00,,,-99.99,FreeWX 2.04,2013-04-20 13:43:00,
2013-04-20 09:53:00,48.9,10.8,30.15,ENE,63,4.0,7.4,21,0.00,,,-99.99,FreeWX 2.04,2013-04-20 13:53:00,
2013-04-20 10:03:00,50.0,11.7,30.18,SE,137,4.0,9.2,21,0.00,,,-99.99,FreeWX 2.04,2013-04-20 14:03:00,
2013-04-20 10:13:00,50.4,11.8,30.18,ESE,115,4.0,7.8,21,0.00,,,-99.99,FreeWX 2.04,2013-04-20 14:13:00,
2013-04-20 10:23:00,51.6,12.9,30.18,North,8,4.0,10.5,21,0.00,,,-99.99,FreeWX 2.04,2013-04-20 14:23:00,
2013-04-20 10:33:00,52.0,13.3,30.18,East,93,5.0,7.8,21,0.00,,,-99.99,FreeWX 2.04,2013-04-20 14:33:00,
2013-04-20 10:43:00,52.3,13.6,30.18,East,97,4.0,11.2,21,0.00,,,-99.99,FreeWX 2.04,2013-04-20 14:43:00,
2013-04-20 10:53:00,53.1,13.1,30.18,SE,132,5.0,11.6,20,0.00,,,-99.99,FreeWX 2.04,2013-04-20 14:53:00,
2013-04-20 11:03:00,53.1,13.1,30.18,SE,137,5.0,7.8,20,0.00,,,-99.99,FreeWX 2.04,2013-04-20 15:03:00,
2013-04-20 11:13:00,52.7,13.8,30.18,SE,132,5.0,8.7,21,0.00,,,-99.99,FreeWX 2.04,2013-04-20 15:13:00,
2013-04-20 11:23:00,54.7,14.4,30.18,ENE,76,5.0,13.4,20,0.00,,,-99.99,FreeWX 2.04,2013-04-20 15:23:00,
2013-04-20 11:33:00,56.5,14.7,30.18,NNE,24,5.0,12.1,19,0.00,,,-99.99,FreeWX 2.04,2013-04-20 15:33:00,
2013-04-20 11:43:00,56.3,14.5,30.18,ESE,106,6.0,12.5,19,0.00,,,-99.99,FreeWX 2.04,2013-04-20 15:43:00,
2013-04-20 11:53:00,56.3,14.5,30.18,ENE,57,5.0,8.3,19,0.00,,,-99.99,FreeWX 2.04,2013-04-20 15:53:00,
2013-04-20 12:03:00,56.8,15.1,30.18,ENE,70,5.0,9.2,19,0.00,,,-99.99,FreeWX 2.04,2013-04-20 16:03:00,
2013-04-20 12:13:00,57.0,15.3,30.18,SE,136,4.0,6.7,19,0.00,,,-99.99,FreeWX 2.04,2013-04-20 16:13:00,
2013-04-20 12:23:00,58.6,16.5,30.21,North,357,6.0,11.2,19,0.00,,,-99.99,FreeWX 2.04,2013-04-20 16:23:00,
2013-04-20 12:33:00,59.4,17.1,30.21,NE,50,4.0,8.7,19,0.00,,,-99.99,FreeWX 2.04,2013-04-20 16:33:00,
2013-04-20 12:43:00,59.2,16.9,30.21,NNE,15,5.0,11.2,19,0.00,,,-99.99,FreeWX 2.04,2013-04-20 16:43:00,
2013-04-20 12:53:00,56.8,15.1,30.18,East,82,5.0,11.0,19,0.00,,,-99.99,FreeWX 2.04,2013-04-20 16:53:00,
2013-04-20 13:03:00,59.2,16.9,30.18,NNW,348,4.0,10.5,19,0.00,,,-99.99,FreeWX 2.04,2013-04-20 17:03:00,
2013-04-20 13:13:00,59.4,17.1,30.18,ENE,66,4.0,9.6,19,0.00,,,-99.99,FreeWX 2.04,2013-04-20 17:13:00,
2013-04-20 13:23:00,59.5,17.2,30.18,SE,140,4.0,11.0,19,0.00,,,-99.99,FreeWX 2.04,2013-04-20 17:23:00,
2013-04-20 13:33:00,61.3,18.7,30.18,North,0,5.0,14.3,19,0.00,,,-99.99,FreeWX 2.04,2013-04-20 17:33:00,
2013-04-20 13:43:00,62.1,18.1,30.18,North,5,5.0,13.0,18,0.00,,,-99.99,FreeWX 2.04,2013-04-20 17:43:00,
2013-04-20 13:53:00,62.1,18.1,30.18,NNE,33,4.0,9.6,18,0.00,,,-99.99,FreeWX 2.04,2013-04-20 17:53:00,
2013-04-20 14:03:00,62.2,18.1,30.18,NNE,18,5.0,10.5,18,0.00,,,-99.99,FreeWX 2.04,2013-04-20 18:03:00,
2013-04-20 14:13:00,60.8,18.3,30.18,SE,128,4.0,9.6,19,0.00,,,-99.99,FreeWX 2.04,2013-04-20 18:13:00,
2013-04-20 14:23:00,62.4,18.3,30.18,North,4,4.0,11.2,18,0.00,,,-99.99,FreeWX 2.04,2013-04-20 18:23:00,
2013-04-20 14:33:00,63.0,18.9,30.18,NE,35,5.0,10.1,18,0.00,,,-99.99,FreeWX 2.04,2013-04-20 18:33:00,
2013-04-20 14:43:00,63.9,19.6,30.18,North,356,4.0,10.1,18,0.00,,,-99.99,FreeWX 2.04,2013-04-20 18:43:00,
2013-04-20 14:53:00,61.7,17.8,30.18,ENE,59,4.0,8.7,18,0.00,,,-99.99,FreeWX 2.04,2013-04-20 18:53:00,
2013-04-20 15:03:00,62.4,18.3,30.18,NE,54,4.0,8.3,18,0.00,,,-99.99,FreeWX 2.04,2013-04-20 19:03:00,
2013-04-20 15:13:00,63.9,19.6,30.18,North,357,4.0,9.6,18,0.00,,,-99.99,FreeWX 2.04,2013-04-20 19:13:00,
2013-04-20 15:23:00,64.0,19.8,30.18,NE,53,5.0,9.2,18,0.00,,,-99.99,FreeWX 2.04,2013-04-20 19:23:00,
2013-04-20 15:33:00,61.5,18.9,30.18,East,84,4.0,9.2,19,0.00,,,-99.99,FreeWX 2.04,2013-04-20 19:33:00,
2013-04-20 15:43:00,62.6,18.5,30.18,NE,41,4.0,6.9,18,0.00,,,-99.99,FreeWX 2.04,2013-04-20 19:43:00,
2013-04-20 15:53:00,63.3,19.0,30.18,East,94,4.0,11.2,18,0.00,,,-99.99,FreeWX 2.04,2013-04-20 19:53:00,
2013-04-20 16:03:00,61.7,19.0,30.21,ESE,112,5.0,8.3,19,0.00,,,-99.99,FreeWX 2.04,2013-04-20 20:03:00,
2013-04-20 16:13:00,62.6,18.5,30.21,NNE,29,4.0,7.8,18,0.00,,,-99.99,FreeWX 2.04,2013-04-20 20:13:00,
2013-04-20 16:23:00,61.9,18.0,30.18,SE,137,4.0,9.6,18,0.00,,,-99.99,FreeWX 2.04,2013-04-20 20:23:00,
2013-04-20 16:33:00,63.5,19.2,30.18,North,356,4.0,10.1,18,0.00,,,-99.99,FreeWX 2.04,2013-04-20 20:33:00,
2013-04-20 16:43:00,61.5,18.9,30.18,NNE,32,4.0,9.6,19,0.00,,,-99.99,FreeWX 2.04,2013-04-20 20:43:00,
2013-04-20 16:53:00,61.0,18.5,30.21,NNE,18,4.0,10.1,19,0.00,,,-99.99,FreeWX 2.04,2013-04-20 20:53:00,
2013-04-20 17:03:00,59.9,17.6,30.21,NNE,29,5.0,11.0,19,0.00,,,-99.99,FreeWX 2.04,2013-04-20 21:03:00,
2013-04-20 17:13:00,59.4,17.1,30.21,ESE,121,3.0,6.7,19,0.00,,,-99.99,FreeWX 2.04,2013-04-20 21:13:00,
2013-04-20 17:23:00,59.9,17.6,30.21,North,0,3.0,5.8,19,0.00,,,-99.99,FreeWX 2.04,2013-04-20 21:23:00,
2013-04-20 17:33:00,59.0,16.9,30.21,East,92,4.0,11.6,19,0.00,,,-99.99,FreeWX 2.04,2013-04-20 21:33:00,
2013-04-20 17:43:00,58.5,16.3,30.21,SE,127,3.0,7.8,19,0.00,,,-99.99,FreeWX 2.04,2013-04-20 21:43:00,
2013-04-20 17:53:00,57.9,16.0,30.21,East,83,4.0,8.3,19,0.00,,,-99.99,FreeWX 2.04,2013-04-20 21:53:00,
2013-04-20 18:03:00,57.7,15.8,30.21,SE,132,3.0,5.8,19,0.00,,,-99.99,FreeWX 2.04,2013-04-20 22:03:00,
2013-04-20 18:13:00,57.4,15.4,30.21,SE,138,2.0,5.8,19,0.00,,,-99.99,FreeWX 2.04,2013-04-20 22:13:00,
2013-04-20 18:23:00,57.0,15.3,30.21,NNE,12,3.0,5.8,19,0.00,,,-99.99,FreeWX 2.04,2013-04-20 22:23:00,
2013-04-20 18:33:00,56.1,15.6,30.21,ESE,114,3.0,6.9,20,0.00,,,-99.99,FreeWX 2.04,2013-04-20 22:33:00,
2013-04-20 18:43:00,55.8,15.3,30.21,SE,144,2.0,5.4,20,0.00,,,-99.99,FreeWX 2.04,2013-04-20 22:43:00,
2013-04-20 18:53:00,55.2,14.9,30.21,ESE,113,3.0,4.9,20,0.00,,,-99.99,FreeWX 2.04,2013-04-20 22:53:00,
2013-04-20 19:03:00,54.7,14.4,30.21,NNE,29,2.0,5.4,20,0.00,,,-99.99,FreeWX 2.04,2013-04-20 23:03:00,
2013-04-20 19:13:00,54.1,14.0,30.21,ESE,116,3.0,5.4,20,0.00,,,-99.99,FreeWX 2.04,2013-04-20 23:13:00,
2013-04-20 19:23:00,54.0,13.8,30.21,SE,137,3.0,4.9,20,0.00,,,-99.99,FreeWX 2.04,2013-04-20 23:23:00,
2013-04-20 19:33:00,53.4,13.5,30.24,NNE,30,1.0,4.5,20,0.00,,,-99.99,FreeWX 2.04,2013-04-20 23:33:00,
2013-04-20 19:43:00,52.9,12.9,30.24,North,-999,0.0,4.0,20,0.00,,,-99.99,FreeWX 2.04,2013-04-20 23:43:00,
2013-04-20 19:53:00,52.2,13.5,30.24,North,352,2.0,4.5,21,0.00,,,-99.99,FreeWX 2.04,2013-04-20 23:53:00,
2013-04-20 20:03:00,51.6,12.9,30.24,ESE,111,2.0,3.6,21,0.00,,,-99.99,FreeWX 2.04,2013-04-21 00:03:00,
2013-04-20 20:13:00,50.7,12.2,30.24,ESE,111,2.0,3.6,21,0.00,,,-99.99,FreeWX 2.04,2013-04-21 00:13:00,
2013-04-20 20:23:00,49.8,11.5,30.24,North,-999,0.0,2.7,21,0.00,,,-99.99,FreeWX 2.04,2013-04-21 00:23:00,
2013-04-20 20:33:00,49.3,10.9,30.24,North,-999,0.0,2.7,21,0.00,,,-99.99,FreeWX 2.04,2013-04-21 00:33:00,
2013-04-20 20:43:00,48.9,10.8,30.24,North,-999,0.0,0.0,21,0.00,,,-99.99,FreeWX 2.04,2013-04-21 00:43:00,
2013-04-20 20:53:00,48.4,10.2,30.27,North,-999,0.0,0.0,21,0.00,,,-99.99,FreeWX 2.04,2013-04-21 00:53:00,
2013-04-20 21:03:00,47.3,9.3,30.27,North,-999,0.0,0.0,21,0.00,,,-99.99,FreeWX 2.04,2013-04-21 01:03:00,
2013-04-20 21:13:00,46.8,10.0,30.27,ESE,112,1.0,4.0,22,0.00,,,-99.99,FreeWX 2.04,2013-04-21 01:13:00,
2013-04-20 21:23:00,46.6,9.9,30.27,ESE,116,1.0,3.6,22,0.00,,,-99.99,FreeWX 2.04,2013-04-21 01:23:00,
2013-04-20 21:33:00,46.2,9.5,30.30,North,-999,0.0,0.0,22,0.00,,,-99.99,FreeWX 2.04,2013-04-21 01:33:00,
2013-04-20 21:43:00,46.0,9.3,30.30,North,-999,0.0,0.0,22,0.00,,,-99.99,FreeWX 2.04,2013-04-21 01:43:00,
2013-04-20 21:53:00,45.5,9.0,30.30,North,-999,0.0,0.0,22,0.00,,,-99.99,FreeWX 2.04,2013-04-21 01:53:00,
2013-04-20 22:03:00,44.8,8.2,30.30,North,-999,0.0,0.0,22,0.00,,,-99.99,FreeWX 2.04,2013-04-21 02:03:00,
2013-04-20 22:13:00,44.8,8.2,30.30,North,-999,0.0,0.0,22,0.00,,,-99.99,FreeWX 2.04,2013-04-21 02:13:00,
2013-04-20 22:23:00,44.8,8.2,30.33,SE,136,2.0,4.5,22,0.00,,,-99.99,FreeWX 2.04,2013-04-21 02:23:00,
2013-04-20 22:33:00,44.8,8.2,30.33,SSE,164,3.0,4.9,22,0.00,,,-99.99,FreeWX 2.04,2013-04-21 02:33:00,
2013-04-20 22:43:00,44.2,7.9,30.33,SSE,168,2.0,4.5,22,0.00,,,-99.99,FreeWX 2.04,2013-04-21 02:43:00,
2013-04-20 22:53:00,44.2,7.9,30.33,South,169,2.0,4.5,22,0.00,,,-99.99,FreeWX 2.04,2013-04-21 02:53:00,
2013-04-20 23:03:00,44.4,8.1,30.33,SSE,156,3.0,4.0,22,0.00,,,-99.99,FreeWX 2.04,2013-04-21 03:03:00,
2013-04-20 23:13:00,44.1,7.7,30.33,North,-999,0.0,3.1,22,0.00,,,-99.99,FreeWX 2.04,2013-04-21 03:13:00,
2013-04-20 23:23:00,43.9,7.5,30.33,SSE,167,2.0,5.4,22,0.00,,,-99.99,FreeWX 2.04,2013-04-21 03:23:00,
2013-04-20 23:33:00,43.9,7.5,30.33,South,173,3.0,5.4,22,0.00,,,-99.99,FreeWX 2.04,2013-04-21 03:33:00,
2013-04-20 23:44:00,43.7,7.3,30.33,South,178,3.0,4.9,22,0.00,,,-99.99,FreeWX 2.04,2013-04-21 03:44:00,
2013-04-20 23:54:00,43.7,8.4,30.33,SSE,167,3.0,4.9,23,0.00,,,-99.99,FreeWX 2.04,2013-04-21 03:54:00,